Time;durP1;ratioP1;P1;durP2;ratioP2;P2;SDS_P1;SDS_P2;PMS_P1;PMS_P2;Temp;Humidity;BMP_temperature;BMP_pressure;BME280_temperature;BME280_humidity;BME280_pressure;Samples;Min_cycle;Max_cycle;Signal;HPM_P1;HPM_P2
2022/07/27 00:01:12;;;;;;;1.60;0.90;;;15.00;1.00;;;;;;5073841;28;20615;-78
2022/07/27 00:03:39;;;;;;;2.63;1.08;;;15.00;1.00;;;;;;5073540;28;20205;-78
2022/07/27 00:06:06;;;;;;;0.75;0.50;;;14.90;1.00;;;;;;5072895;28;20675;-77
2022/07/27 00:08:35;;;;;;;0.98;0.65;;;14.90;1.00;;;;;;5074294;28;20223;-78
2022/07/27 00:11:02;;;;;;;1.05;0.70;;;14.90;1.00;;;;;;5073717;28;20850;-78
2022/07/27 00:13:29;;;;;;;2.15;0.80;;;14.80;1.00;;;;;;5073065;28;20209;-78
2022/07/27 00:15:56;;;;;;;0.60;0.50;;;14.80;1.00;;;;;;5073254;28;20774;-79
2022/07/27 00:18:23;;;;;;;1.03;0.80;;;14.80;1.00;;;;;;5072934;28;20516;-79
2022/07/27 00:20:50;;;;;;;3.65;1.17;;;14.80;1.00;;;;;;5072774;28;20197;-77
2022/07/27 00:23:17;;;;;;;2.05;0.70;;;14.70;1.00;;;;;;5073535;28;20227;-77
2022/07/27 00:25:45;;;;;;;1.30;0.77;;;14.70;1.00;;;;;;5073169;28;20588;-78
2022/07/27 00:28:12;;;;;;;2.22;0.73;;;14.70;2.10;;;;;;5072731;28;20209;-77
2022/07/27 00:30:39;;;;;;;1.42;0.70;;;14.70;9.30;;;;;;5073530;28;20224;-78
2022/07/27 00:33:06;;;;;;;1.30;0.70;;;14.70;14.40;;;;;;5073109;28;20284;-78
2022/07/27 00:35:33;;;;;;;3.33;0.80;;;14.70;19.30;;;;;;5072884;28;20217;-78
2022/07/27 00:38:00;;;;;;;1.75;0.82;;;14.70;22.30;;;;;;5072609;28;20272;-78
2022/07/27 00:40:27;;;;;;;2.25;0.98;;;14.70;25.30;;;;;;5073038;28;20648;-78
2022/07/27 00:42:55;;;;;;;1.95;0.98;;;14.80;28.20;;;;;;5072330;28;20258;-77
2022/07/27 00:45:22;;;;;;;3.85;1.10;;;14.80;32.10;;;;;;5072953;28;20744;-77
2022/07/27 00:47:48;;;;;;;2.05;0.65;;;14.80;27.70;;;;;;5072434;28;20207;-78
2022/07/27 00:50:15;;;;;;;7.33;0.83;;;14.80;29.30;;;;;;5072885;28;20232;-78
2022/07/27 00:52:42;;;;;;;2.50;0.70;;;14.80;31.70;;;;;;5072839;28;20201;-80
2022/07/27 00:55:10;;;;;;;0.90;0.70;;;14.80;35.30;;;;;;5074381;28;20201;-77
2022/07/27 00:57:36;;;;;;;0.95;0.70;;;14.80;38.40;;;;;;5073496;28;20231;-77
2022/07/27 01:00:07;;;;;;;2.90;0.68;;;14.80;39.30;;;;;;5078025;28;20309;-77
2022/07/27 01:02:34;;;;;;;2.00;0.80;;;14.90;39.30;;;;;;5082143;28;20288;-77
2022/07/27 01:05:00;;;;;;;2.15;0.80;;;14.90;40.10;;;;;;5074312;28;20237;-77
2022/07/27 01:07:30;;;;;;;2.92;0.77;;;14.90;42.90;;;;;;5091720;28;20210;-78
2022/07/27 01:09:58;;;;;;;2.27;0.90;;;15.00;40.70;;;;;;5090072;28;20269;-77
2022/07/27 01:12:26;;;;;;;1.50;0.73;;;15.00;41.10;;;;;;5092589;28;20208;-77
2022/07/27 01:14:54;;;;;;;1.13;0.60;;;15.00;42.30;;;;;;5092740;28;20688;-77
2022/07/27 01:17:22;;;;;;;1.30;0.88;;;15.00;43.30;;;;;;5092109;28;20207;-78
2022/07/27 01:19:50;;;;;;;2.08;1.08;;;15.00;43.20;;;;;;5074867;28;20205;-78
2022/07/27 01:22:18;;;;;;;1.23;0.60;;;15.00;43.60;;;;;;5072804;28;20552;-79
2022/07/27 01:24:45;;;;;;;1.40;0.80;;;15.10;41.50;;;;;;5071574;28;20200;-79
2022/07/27 01:27:12;;;;;;;2.83;0.80;;;15.10;42.30;;;;;;5072272;28;20200;-79
2022/07/27 01:29:38;;;;;;;1.45;0.68;;;15.10;43.00;;;;;;5072448;28;20208;-79
2022/07/27 01:32:06;;;;;;;2.58;0.98;;;15.10;42.70;;;;;;5072137;28;20197;-79
2022/07/27 01:34:33;;;;;;;1.00;0.68;;;15.20;43.50;;;;;;5072377;28;20209;-79
2022/07/27 01:37:01;;;;;;;2.35;0.65;;;15.20;44.40;;;;;;5071667;28;20208;-79
2022/07/27 01:39:29;;;;;;;1.30;0.75;;;15.20;43.80;;;;;;5071772;28;20217;-79
2022/07/27 01:41:56;;;;;;;1.90;0.60;;;15.20;42.90;;;;;;5072253;28;20194;-79
2022/07/27 01:44:23;;;;;;;5.57;1.33;;;15.30;38.70;;;;;;5071420;28;20612;-79
2022/07/27 01:46:50;;;;;;;1.25;0.80;;;15.30;31.20;;;;;;5071483;28;20571;-79
2022/07/27 01:49:17;;;;;;;1.05;0.57;;;15.30;31.20;;;;;;5071935;28;20672;-79
2022/07/27 01:51:44;;;;;;;2.88;0.90;;;15.30;31.40;;;;;;5070774;28;20651;-79
2022/07/27 01:54:11;;;;;;;1.58;0.77;;;15.40;31.30;;;;;;5091691;28;20212;-79
2022/07/27 01:56:40;;;;;;;4.07;0.90;;;15.40;24.60;;;;;;5081072;28;20201;-79
2022/07/27 01:59:07;;;;;;;2.35;0.93;;;15.40;24.20;;;;;;5071159;28;20201;-79
2022/07/27 02:01:34;;;;;;;1.58;0.90;;;15.40;24.50;;;;;;5071414;28;20215;-78
2022/07/27 02:04:01;;;;;;;1.52;0.90;;;15.50;23.00;;;;;;5071577;28;20228;-78
2022/07/27 02:06:28;;;;;;;5.10;0.80;;;15.50;22.40;;;;;;5071283;28;20561;-78
2022/07/27 02:08:55;;;;;;;2.13;0.80;;;15.50;18.00;;;;;;5072078;28;20225;-78
2022/07/27 02:14:07;;;;;;;4.97;1.25;;;15.60;18.50;;;;;;5071140;28;20212;-78
2022/07/27 02:16:35;;;;;;;2.67;0.80;;;15.60;18.20;;;;;;5071324;28;20197;-78
2022/07/27 02:19:02;;;;;;;3.53;0.90;;;15.60;21.60;;;;;;5070958;28;20585;-77
2022/07/27 02:21:29;;;;;;;2.08;1.17;;;15.70;43.70;;;;;;5073546;28;20205;-77
2022/07/27 02:23:55;;;;;;;3.63;1.10;;;15.70;59.60;;;;;;5075574;28;20203;-80
2022/07/27 02:26:23;;;;;;;2.83;1.10;;;15.70;76.10;;;;;;5075598;28;20212;-82
2022/07/27 02:28:50;;;;;;;5.50;1.20;;;15.80;94.30;;;;;;5076214;28;20507;-78
2022/07/27 02:31:18;;;;;;;3.67;1.02;;;15.80;99.90;;;;;;5076375;28;20217;-79
2022/07/27 02:33:47;;;;;;;2.53;1.00;;;15.80;99.90;;;;;;5074683;28;20205;-81
2022/07/27 02:36:13;;;;;;;4.88;1.60;;;15.80;99.90;;;;;;5076384;28;20201;-81
2022/07/27 02:38:40;;;;;;;4.80;1.30;;;15.70;99.90;;;;;;5076051;28;20197;-81
2022/07/27 02:41:07;;;;;;;6.28;1.30;;;15.60;99.90;;;;;;5076720;28;20198;-82
2022/07/27 02:43:34;;;;;;;3.17;1.27;;;15.60;99.90;;;;;;5076785;28;20196;-83
2022/07/27 02:46:01;;;;;;;5.20;1.80;;;15.60;99.90;;;;;;5076283;28;20247;-82
2022/07/27 02:48:31;;;;;;;3.22;1.27;;;15.50;99.90;;;;;;5076070;28;20198;-82
2022/07/27 02:51:01;;;;;;;3.67;1.30;;;15.40;99.90;;;;;;5075818;28;20225;-82
2022/07/27 02:53:28;;;;;;;2.58;0.90;;;15.40;99.90;;;;;;5075598;28;20601;-81
2022/07/27 02:55:55;;;;;;;2.58;1.20;;;15.40;99.90;;;;;;5075316;28;20197;-81
2022/07/27 02:58:22;;;;;;;2.08;1.13;;;15.30;99.90;;;;;;5075299;28;20204;-81
2022/07/27 03:00:49;;;;;;;2.22;0.95;;;15.30;99.90;;;;;;5075275;28;20196;-80
2022/07/27 03:03:16;;;;;;;6.03;1.00;;;15.30;99.90;;;;;;5075292;28;20204;-80
2022/07/27 03:05:44;;;;;;;2.40;1.10;;;15.30;99.90;;;;;;5075219;28;20233;-80
2022/07/27 03:08:11;;;;;;;2.88;1.20;;;15.30;99.90;;;;;;5075565;28;20318;-81
2022/07/27 03:10:37;;;;;;;1.63;1.00;;;15.30;99.90;;;;;;5074424;28;20318;-80
2022/07/27 03:13:04;;;;;;;4.47;1.10;;;15.30;99.90;;;;;;5075016;28;20228;-79
2022/07/27 03:15:33;;;;;;;4.85;1.25;;;15.30;99.90;;;;;;5082827;28;20204;-80
2022/07/27 03:18:00;;;;;;;2.00;1.15;;;15.30;99.90;;;;;;5095259;28;20203;-79
2022/07/27 03:20:27;;;;;;;2.75;1.00;;;15.30;99.90;;;;;;5084602;28;20201;-80
2022/07/27 03:22:55;;;;;;;1.92;1.00;;;15.20;99.90;;;;;;5074061;28;20197;-78
2022/07/27 03:25:22;;;;;;;2.50;1.35;;;15.20;99.90;;;;;;5074315;28;20209;-77
2022/07/27 03:27:49;;;;;;;1.65;0.80;;;15.20;99.90;;;;;;5074313;28;20408;-76
2022/07/27 03:30:16;;;;;;;3.35;0.93;;;15.20;99.90;;;;;;5073226;28;20200;-77
2022/07/27 03:32:43;;;;;;;2.53;1.45;;;15.20;99.90;;;;;;5073785;28;20236;-76
2022/07/27 03:35:10;;;;;;;1.95;1.00;;;15.20;99.90;;;;;;5074577;28;20197;-77
2022/07/27 03:37:36;;;;;;;1.83;1.10;;;15.20;99.90;;;;;;5074228;28;20201;-80
2022/07/27 03:40:06;;;;;;;1.65;1.35;;;15.20;99.90;;;;;;5074366;28;20531;-79
2022/07/27 03:42:32;;;;;;;1.85;1.05;;;15.20;99.90;;;;;;5074672;28;20194;-80
2022/07/27 03:44:59;;;;;;;1.30;0.98;;;15.20;99.90;;;;;;5073429;28;20201;-79
2022/07/27 03:47:26;;;;;;;1.30;1.08;;;15.20;99.90;;;;;;5074283;28;20708;-80
2022/07/27 03:49:53;;;;;;;2.78;1.10;;;15.20;99.90;;;;;;5073901;28;20517;-80
2022/07/27 03:52:20;;;;;;;2.35;1.20;;;15.20;99.90;;;;;;5073516;28;20235;-80
2022/07/27 03:54:47;;;;;;;1.40;1.17;;;15.20;99.90;;;;;;5073998;28;20204;-80
2022/07/27 03:57:15;;;;;;;1.60;1.20;;;15.20;99.90;;;;;;5074210;28;20197;-79
2022/07/27 03:59:42;;;;;;;1.48;0.98;;;15.20;99.90;;;;;;5073850;28;20201;-80
2022/07/27 04:02:09;;;;;;;1.70;1.13;;;15.10;99.90;;;;;;5074168;28;20204;-77
2022/07/27 04:04:36;;;;;;;3.45;1.10;;;15.20;99.90;;;;;;5073158;28;20229;-79
2022/07/27 04:07:03;;;;;;;4.03;1.80;;;15.20;99.90;;;;;;5074199;28;20300;-79
2022/07/27 04:09:30;;;;;;;2.15;1.00;;;15.20;99.90;;;;;;5073999;28;20208;-77
2022/07/27 04:11:56;;;;;;;2.70;1.80;;;15.20;99.90;;;;;;5072560;28;20217;-80
2022/07/27 04:14:25;;;;;;;3.28;1.35;;;15.20;99.90;;;;;;5073587;28;20189;-78
2022/07/27 04:16:51;;;;;;;4.32;1.30;;;15.20;99.90;;;;;;5074022;28;20198;-79
2022/07/27 04:19:18;;;;;;;3.15;1.20;;;15.20;99.90;;;;;;5073340;28;20208;-76
2022/07/27 04:21:47;;;;;;;3.67;1.38;;;15.10;99.90;;;;;;5073531;28;20197;-79
2022/07/27 04:24:14;;;;;;;3.75;1.48;;;15.10;99.90;;;;;;5073341;28;20483;-78
2022/07/27 04:26:41;;;;;;;2.10;1.08;;;15.20;99.90;;;;;;5072975;28;20205;-79
2022/07/27 04:29:08;;;;;;;3.42;1.77;;;15.20;99.90;;;;;;5073645;28;20201;-77
2022/07/27 04:31:36;;;;;;;6.78;1.63;;;15.20;99.90;;;;;;5073770;28;20513;-78
2022/07/27 04:34:03;;;;;;;3.05;1.60;;;15.20;99.90;;;;;;5072913;28;20208;-77
2022/07/27 04:36:30;;;;;;;4.78;1.70;;;15.20;99.90;;;;;;5073533;28;20207;-76
2022/07/27 04:38:57;;;;;;;3.47;1.30;;;15.20;99.90;;;;;;5073668;28;20222;-77
2022/07/27 04:41:23;;;;;;;3.13;1.35;;;15.20;99.90;;;;;;5078361;28;20279;-77
2022/07/27 04:43:51;;;;;;;2.65;1.10;;;15.20;99.90;;;;;;5073558;28;20565;-77
2022/07/27 04:46:18;;;;;;;3.22;1.13;;;15.20;99.90;;;;;;5072084;28;20205;-77
2022/07/27 04:48:46;;;;;;;2.15;1.20;;;15.20;99.90;;;;;;5081242;28;20200;-75
2022/07/27 04:51:14;;;;;;;1.52;0.90;;;15.20;99.90;;;;;;5072355;28;20224;-76
2022/07/27 04:53:41;;;;;;;7.22;1.35;;;15.20;99.90;;;;;;5072936;28;20295;-78
2022/07/27 04:56:08;;;;;;;4.40;1.30;;;15.20;99.90;;;;;;5075867;28;20208;-76
2022/07/27 04:58:35;;;;;;;3.70;1.25;;;15.20;99.90;;;;;;5072763;28;20224;-76
2022/07/27 05:01:03;;;;;;;3.88;0.90;;;15.20;99.90;;;;;;5087925;28;20604;-77
2022/07/27 05:03:30;;;;;;;3.95;1.10;;;15.20;99.90;;;;;;5091295;28;20204;-76
2022/07/27 05:05:58;;;;;;;4.07;1.20;;;15.20;99.90;;;;;;5093263;28;20220;-77
2022/07/27 05:08:25;;;;;;;2.90;1.13;;;15.20;99.90;;;;;;5079786;28;20216;-78
2022/07/27 05:10:51;;;;;;;2.92;1.10;;;15.20;99.90;;;;;;5077517;28;20227;-77
2022/07/27 05:13:18;;;;;;;3.22;0.90;;;15.20;99.90;;;;;;5076287;28;20205;-78
2022/07/27 05:15:45;;;;;;;3.63;1.10;;;15.20;99.90;;;;;;5073274;28;20204;-78
2022/07/27 05:18:12;;;;;;;3.60;1.00;;;15.20;99.90;;;;;;5083099;28;20211;-78
2022/07/27 05:20:38;;;;;;;2.72;0.90;;;15.20;99.90;;;;;;5093382;28;20299;-78
2022/07/27 05:23:07;;;;;;;1.70;1.02;;;15.20;99.90;;;;;;5091414;28;20204;-78
2022/07/27 05:25:33;;;;;;;2.15;1.10;;;15.20;99.90;;;;;;5091843;28;20205;-78
2022/07/27 05:28:00;;;;;;;3.47;1.20;;;15.20;99.90;;;;;;5093554;28;20245;-78
2022/07/27 05:30:27;;;;;;;3.55;1.00;;;15.30;99.90;;;;;;5082335;28;20205;-79
2022/07/27 05:32:54;;;;;;;4.15;1.45;;;15.30;99.90;;;;;;5072575;28;20312;-78
2022/07/27 05:35:22;;;;;;;3.50;1.52;;;15.30;99.90;;;;;;5072122;28;20201;-77
2022/07/27 05:37:48;;;;;;;2.85;0.90;;;15.30;99.90;;;;;;5071428;28;20193;-77
2022/07/27 05:40:17;;;;;;;4.72;1.45;;;15.40;99.90;;;;;;5072399;28;20628;-77
2022/07/27 05:42:44;;;;;;;5.18;1.08;;;15.50;94.20;;;;;;5072599;28;20197;-77
2022/07/27 05:45:11;;;;;;;4.68;1.08;;;15.60;72.20;;;;;;5071775;28;20207;-77
2022/07/27 05:47:38;;;;;;;3.40;1.10;;;15.60;65.40;;;;;;5071927;28;20737;-77
2022/07/27 05:50:06;;;;;;;1.92;0.90;;;15.70;56.70;;;;;;5072402;28;20214;-77
2022/07/27 05:52:33;;;;;;;3.83;1.35;;;15.80;37.70;;;;;;5072589;28;20221;-78
2022/07/27 05:55:00;;;;;;;2.28;0.90;;;15.90;39.80;;;;;;5072339;28;20293;-77
2022/07/27 05:57:29;;;;;;;1.75;1.00;;;15.90;37.20;;;;;;5071093;28;20204;-78
2022/07/27 05:59:57;;;;;;;2.67;1.02;;;16.10;35.60;;;;;;5071739;28;20243;-77
2022/07/27 06:02:26;;;;;;;2.65;1.27;;;16.30;31.60;;;;;;5072266;28;20197;-77
2022/07/27 06:04:52;;;;;;;3.42;1.30;;;16.50;24.50;;;;;;5071391;28;20323;-76
2022/07/27 06:10:06;;;;;;;5.20;1.20;;;17.10;1.00;;;;;;5051703;28;20221;-78
2022/07/27 06:12:39;;;;;;;5.45;1.00;;;17.40;1.00;;;;;;5051452;28;20518;-78
2022/07/27 06:15:08;;;;;;;4.63;1.15;;;17.70;1.00;;;;;;5051796;28;20217;-78
2022/07/27 06:17:35;;;;;;;3.28;0.75;;;18.00;1.00;;;;;;5051544;28;20201;-78
2022/07/27 06:20:03;;;;;;;3.92;1.13;;;18.20;1.00;;;;;;5051126;28;20201;-78
2022/07/27 06:22:30;;;;;;;3.38;1.20;;;18.40;1.00;;;;;;5051800;28;20205;-81
2022/07/27 06:24:57;;;;;;;2.78;1.27;;;18.70;1.00;;;;;;5051313;28;20613;-78
2022/07/27 06:27:23;;;;;;;2.92;1.08;;;18.80;1.00;;;;;;5051302;28;20492;-79
2022/07/27 06:29:52;;;;;;;2.55;0.85;;;19.00;1.00;;;;;;5051700;28;20228;-78
2022/07/27 06:32:19;;;;;;;5.65;0.80;;;19.20;1.00;;;;;;5050330;28;20233;-79
2022/07/27 06:34:45;;;;;;;2.88;0.95;;;19.40;99.90;;;;;;5051354;28;20201;-79
2022/07/27 06:37:12;;;;;;;2.65;0.70;;;19.70;99.90;;;;;;5051770;28;20198;-80
2022/07/27 06:39:39;;;;;;;2.15;0.73;;;19.90;1.00;;;;;;5051168;28;20312;-78
2022/07/27 06:42:07;;;;;;;3.65;1.33;;;20.10;1.00;;;;;;5051521;28;20583;-79
2022/07/27 06:44:34;;;;;;;2.28;0.90;;;20.40;99.90;;;;;;5051222;28;20306;-79
2022/07/27 06:47:02;;;;;;;2.90;1.08;;;20.60;99.80;;;;;;5050928;28;20204;-79
2022/07/27 06:49:29;;;;;;;2.75;1.00;;;20.80;99.90;;;;;;5051503;28;20224;-78
2022/07/27 06:51:56;;;;;;;3.25;1.00;;;21.00;99.90;;;;;;5051140;28;20228;-79
2022/07/27 06:54:23;;;;;;;2.95;1.13;;;21.10;16.70;;;;;;5050497;28;20198;-81
2022/07/27 06:56:50;;;;;;;2.72;0.82;;;21.40;1.00;;;;;;5063855;28;20212;-77
2022/07/27 06:59:16;;;;;;;5.30;1.25;;;21.40;1.00;;;;;;5065031;28;20202;-79
2022/07/27 07:01:43;;;;;;;4.53;1.08;;;21.60;99.90;;;;;;5050486;28;20201;-75
2022/07/27 07:04:11;;;;;;;6.00;1.13;;;21.70;99.90;;;;;;5050602;28;20202;-78
2022/07/27 07:06:38;;;;;;;4.68;0.93;;;21.70;1.00;;;;;;5050956;28;20202;-79
2022/07/27 07:09:05;;;;;;;2.15;0.90;;;22.10;25.30;;;;;;5052879;28;20204;-76
2022/07/27 07:11:32;;;;;;;4.00;0.90;;;22.50;1.00;;;;;;5059551;28;20208;-77
2022/07/27 07:13:59;;;;;;;2.55;1.23;;;22.90;1.00;;;;;;5074451;28;20193;-79
2022/07/27 07:16:25;;;;;;;2.40;0.90;;;23.10;1.00;;;;;;5066908;28;20197;-78
2022/07/27 07:18:52;;;;;;;2.08;0.80;;;23.30;1.00;;;;;;5073552;28;20197;-79
2022/07/27 07:21:21;;;;;;;1.88;0.70;;;23.50;99.90;;;;;;5075238;28;20193;-78
2022/07/27 07:23:47;;;;;;;1.52;0.82;;;23.90;99.90;;;;;;5069987;28;20202;-79
2022/07/27 07:26:14;;;;;;;2.67;0.90;;;24.20;99.90;;;;;;5056157;28;20197;-80
2022/07/27 07:28:41;;;;;;;3.05;0.80;;;24.20;99.90;;;;;;5064132;28;20197;-80
2022/07/27 07:31:08;;;;;;;2.08;0.70;;;24.20;99.90;;;;;;5069681;28;20702;-78
2022/07/27 07:33:35;;;;;;;2.55;0.77;;;23.90;99.90;;;;;;5072917;28;20688;-79
2022/07/27 07:36:04;;;;;;;4.30;0.85;;;23.30;99.90;;;;;;5072709;28;20201;-78
2022/07/27 07:38:33;;;;;;;2.47;0.80;;;22.80;99.90;;;;;;5070869;28;20541;-82
2022/07/27 07:41:00;;;;;;;3.78;0.98;;;22.40;99.90;;;;;;5073818;28;20205;-78
2022/07/27 07:43:27;;;;;;;4.40;1.08;;;21.80;1.00;;;;;;5071086;28;20220;-80
2022/07/27 07:45:55;;;;;;;1.50;0.93;;;21.50;1.00;;;;;;5068298;28;20321;-78
2022/07/27 07:48:22;;;;;;;4.88;1.15;;;21.00;1.00;;;;;;5073964;28;20208;-79
2022/07/27 07:50:49;;;;;;;3.60;0.75;;;20.90;1.00;;;;;;5070451;28;20202;-78
2022/07/27 07:53:16;;;;;;;2.50;0.90;;;20.70;1.00;;;;;;5070370;28;20581;-83
2022/07/27 07:55:44;;;;;;;3.55;1.05;;;20.50;1.00;;;;;;5074076;28;20197;-79
2022/07/27 07:58:11;;;;;;;1.63;1.02;;;20.30;1.00;;;;;;5070886;28;20208;-78
2022/07/27 08:00:38;;;;;;;2.47;0.90;;;20.10;1.00;;;;;;5066618;28;20770;-78
2022/07/27 08:03:05;;;;;;;5.00;1.00;;;20.00;1.00;;;;;;5072076;28;20207;-79
2022/07/27 08:05:32;;;;;;;4.85;1.30;;;20.00;66.90;;;;;;5072709;28;20256;-79
2022/07/27 08:07:59;;;;;;;2.25;1.08;;;19.90;99.90;;;;;;5074468;28;20201;-80
2022/07/27 08:10:27;;;;;;;2.53;1.00;;;19.80;99.90;;;;;;5064641;28;20193;-79
2022/07/27 08:12:56;;;;;;;3.20;0.70;;;19.80;1.00;;;;;;5053373;28;20217;-77
2022/07/27 08:15:24;;;;;;;1.98;0.93;;;20.10;99.90;;;;;;5053250;28;20597;-79
2022/07/27 08:17:51;;;;;;;1.88;1.00;;;20.30;55.20;;;;;;5053397;28;20297;-79
2022/07/27 08:20:18;;;;;;;3.60;1.10;;;20.10;94.90;;;;;;5110604;22;20666;-79
2022/07/27 08:22:45;;;;;;;2.20;0.95;;;20.00;99.90;;;;;;5113469;28;20595;-79
2022/07/27 08:25:12;;;;;;;4.68;1.02;;;20.40;99.90;;;;;;5093905;28;20515;-80
2022/07/27 08:27:39;;;;;;;2.15;0.63;;;21.00;74.70;;;;;;5094144;28;20291;-79
2022/07/27 08:30:10;;;;;;;2.30;0.77;;;21.60;1.00;;;;;;5094178;28;20200;-80
2022/07/27 08:32:50;;;;;;;1.58;0.80;;;22.10;1.00;;;;;;5093274;28;20231;-79
2022/07/27 08:35:19;;;;;;;2.17;0.82;;;22.30;1.00;;;;;;5093646;28;20197;-78
2022/07/27 08:37:45;;;;;;;1.20;0.75;;;22.30;99.90;;;;;;5093405;28;20274;-79
2022/07/27 08:40:14;;;;;;;3.25;0.80;;;22.20;99.90;;;;;;5087024;28;20596;-80
2022/07/27 08:42:42;;;;;;;1.90;0.65;;;22.20;99.90;;;;;;5073761;28;20248;-78
2022/07/27 08:45:14;;;;;;;1.08;0.70;;;22.40;99.90;;;;;;5073460;28;20197;-80
2022/07/27 08:47:44;;;;;;;2.28;0.70;;;22.40;99.90;;;;;;5072528;28;20522;-78
2022/07/27 08:50:23;;;;;;;2.15;0.90;;;22.20;99.90;;;;;;5073104;28;20197;-81
2022/07/27 08:52:53;;;;;;;2.20;0.85;;;22.50;99.90;;;;;;5073166;28;20221;-79
2022/07/27 08:55:21;;;;;;;1.50;0.80;;;23.00;99.90;;;;;;5073256;28;20296;-78
2022/07/27 08:57:47;;;;;;;0.95;0.73;;;23.60;99.90;;;;;;5073291;28;20193;-80
2022/07/27 09:00:17;;;;;;;2.35;0.80;;;24.00;99.90;;;;;;5086475;28;20200;-81
2022/07/27 09:02:44;;;;;;;2.55;0.90;;;24.10;99.90;;;;;;5092916;28;20597;-82
2022/07/27 09:05:11;;;;;;;1.90;0.75;;;24.10;99.90;;;;;;5090998;28;20193;-80
2022/07/27 09:07:38;;;;;;;2.78;0.68;;;23.50;99.90;;;;;;5072559;28;20208;-79
2022/07/27 09:10:06;;;;;;;2.90;0.70;;;23.40;99.90;;;;;;5072883;28;20288;-80
2022/07/27 09:12:34;;;;;;;2.38;1.00;;;23.20;99.90;;;;;;5081823;28;20655;-81
2022/07/27 09:15:09;;;;;;;2.90;0.77;;;23.50;99.90;;;;;;5087402;28;20253;-81
2022/07/27 09:17:38;;;;;;;0.80;0.50;;;23.40;99.90;;;;;;5088872;28;20215;-79
2022/07/27 09:20:07;;;;;;;2.17;0.70;;;23.10;99.90;;;;;;5091651;28;20283;-79
2022/07/27 09:22:45;;;;;;;1.77;0.73;;;23.20;99.90;;;;;;5089345;28;20200;-80
2022/07/27 09:25:15;;;;;;;2.63;0.88;;;23.30;99.90;;;;;;5077545;28;20192;-78
2022/07/27 09:27:42;;;;;;;3.72;1.55;;;23.60;99.90;;;;;;5080264;28;20417;-78
2022/07/27 09:30:11;;;;;;;3.63;1.00;;;23.50;99.90;;;;;;5091011;28;20539;-78
2022/07/27 09:32:52;;;;;;;3.03;0.82;;;23.10;99.90;;;;;;5074228;28;20859;-78
2022/07/27 09:35:21;;;;;;;2.40;0.70;;;22.80;99.90;;;;;;5071427;28;20216;-79
2022/07/27 09:37:47;;;;;;;2.13;0.85;;;22.50;99.90;;;;;;5072306;28;20738;-81
2022/07/27 09:40:16;;;;;;;2.22;0.90;;;22.30;99.90;;;;;;5072744;28;20225;-79
2022/07/27 09:42:43;;;;;;;1.27;0.65;;;22.70;99.90;;;;;;5071548;28;20189;-80
2022/07/27 09:45:33;;;;;;;2.55;1.13;;;23.20;99.90;;;;;;5078202;28;20293;-78
2022/07/27 09:48:11;;;;;;;2.40;0.80;;;23.70;99.90;;;;;;5091069;28;20224;-80
2022/07/27 09:50:40;;;;;;;1.42;0.68;;;23.90;99.90;;;;;;5084992;28;20563;-77
2022/07/27 09:53:19;;;;;;;1.20;0.57;;;23.50;99.90;;;;;;5072800;28;20224;-79
2022/07/27 09:55:57;;;;;;;1.90;0.98;;;23.20;99.90;;;;;;5072542;28;20200;-81
2022/07/27 09:58:41;;;;;;;2.15;0.77;;;22.90;99.90;;;;;;5074703;28;20199;-78
2022/07/27 10:01:09;;;;;;;2.53;1.00;;;22.60;99.90;;;;;;5070394;28;20200;-80
2022/07/27 10:03:39;;;;;;;4.45;0.90;;;22.40;99.90;;;;;;5071472;28;20201;-80
2022/07/27 10:06:07;;;;;;;1.83;1.00;;;22.40;99.90;;;;;;5072134;28;20204;-81
2022/07/27 10:08:34;;;;;;;2.88;1.10;;;22.30;99.90;;;;;;5071932;28;20197;-82
2022/07/27 10:11:01;;;;;;;3.25;1.20;;;22.20;99.90;;;;;;5071640;28;20289;-83
2022/07/27 10:13:28;;;;;;;2.00;0.98;;;22.00;99.90;;;;;;5072093;28;20213;-80
2022/07/27 10:15:55;;;;;;;3.33;0.90;;;21.80;99.90;;;;;;5071990;28;20292;-81
2022/07/27 10:18:33;;;;;;;2.65;0.95;;;21.50;1.00;;;;;;5071311;28;20211;-80
2022/07/27 10:21:07;;;;;;;2.58;0.85;;;21.40;1.00;;;;;;5072781;28;20209;-79
2022/07/27 10:23:37;;;;;;;4.30;1.30;;;21.40;1.00;;;;;;5070120;28;20197;-82
2022/07/27 10:26:21;;;;;;;2.13;0.98;;;21.30;1.00;;;;;;5082923;28;20203;-80
2022/07/27 10:28:49;;;;;;;3.22;0.82;;;21.20;1.00;;;;;;5078079;28;20205;-80
2022/07/27 10:31:17;;;;;;;2.45;1.08;;;21.30;1.00;;;;;;5090772;28;20201;-82
2022/07/27 10:33:46;;;;;;;5.80;1.17;;;21.30;1.00;;;;;;5087920;28;20213;-82
2022/07/27 10:36:18;;;;;;;4.07;1.25;;;21.40;1.00;;;;;;5071918;28;20585;-83
2022/07/27 10:38:47;;;;;;;2.78;0.90;;;21.30;1.00;;;;;;5072590;28;20225;-82
2022/07/27 10:41:33;;;;;;;3.95;1.08;;;21.30;1.00;;;;;;5092058;28;20192;-83
2022/07/27 10:44:28;;;;;;;4.05;1.20;;;21.20;1.00;;;;;;5080704;28;20207;-81
2022/07/27 10:46:56;;;;;;;3.30;1.15;;;21.00;1.00;;;;;;5075345;28;20272;-81
2022/07/27 10:49:25;;;;;;;3.50;1.00;;;20.90;1.00;;;;;;5075193;28;20201;-81
2022/07/27 10:51:54;;;;;;;3.80;1.05;;;20.80;1.00;;;;;;5075216;28;20255;-81
2022/07/27 10:54:25;;;;;;;5.40;1.05;;;20.80;1.00;;;;;;5074785;28;20228;-81
2022/07/27 10:56:53;;;;;;;3.58;0.70;;;20.70;1.00;;;;;;5075701;28;20209;-81
2022/07/27 10:59:48;;;;;;;4.32;1.08;;;20.70;1.00;;;;;;5075046;28;20196;-83
2022/07/27 11:02:18;;;;;;;3.35;0.95;;;20.60;1.00;;;;;;5075293;28;20193;-79
2022/07/27 11:04:47;;;;;;;2.65;0.82;;;20.60;1.00;;;;;;5074247;28;20220;-81
2022/07/27 11:07:18;;;;;;;2.30;1.15;;;20.70;1.00;;;;;;5074579;28;20204;-80
2022/07/27 11:09:47;;;;;;;3.08;1.00;;;20.60;1.00;;;;;;5075095;28;20200;-81
2022/07/27 11:12:14;;;;;;;2.40;0.82;;;20.60;1.00;;;;;;5074972;28;20205;-82
2022/07/27 11:14:46;;;;;;;3.25;1.00;;;20.60;1.00;;;;;;5074353;28;20232;-81
2022/07/27 11:17:14;;;;;;;2.47;0.93;;;20.60;1.00;;;;;;5075072;28;20620;-80
2022/07/27 11:19:40;;;;;;;4.13;0.77;;;20.60;1.00;;;;;;5074881;28;20237;-81
2022/07/27 11:22:07;;;;;;;2.58;0.80;;;20.60;1.00;;;;;;5074303;28;20213;-81
2022/07/27 11:24:36;;;;;;;4.05;0.90;;;20.60;1.00;;;;;;5074839;28;20296;-81
2022/07/27 11:27:04;;;;;;;3.20;1.15;;;20.60;1.00;;;;;;5075266;28;20208;-82
2022/07/27 11:29:35;;;;;;;2.95;0.95;;;20.60;1.00;;;;;;5078166;28;20200;-81
2022/07/27 11:32:02;;;;;;;3.53;1.02;;;20.60;1.00;;;;;;5095462;28;20220;-82
2022/07/27 11:34:31;;;;;;;2.05;0.93;;;20.60;1.00;;;;;;5092450;28;20250;-79
2022/07/27 11:37:00;;;;;;;3.50;1.13;;;20.70;1.00;;;;;;5074171;28;20201;-78
2022/07/27 11:39:29;;;;;;;1.50;0.90;;;20.90;1.00;;;;;;5074217;28;20221;-80
2022/07/27 11:41:59;;;;;;;4.95;1.00;;;21.10;1.00;;;;;;5074416;28;20593;-80
2022/07/27 11:44:27;;;;;;;5.15;0.90;;;21.20;1.00;;;;;;5074937;28;20208;-80
2022/07/27 11:46:55;;;;;;;4.63;1.00;;;21.20;1.00;;;;;;5074193;28;20212;-80
2022/07/27 11:49:27;;;;;;;2.00;0.80;;;21.30;1.00;;;;;;5071753;28;20209;-79
2022/07/27 11:51:55;;;;;;;2.80;1.10;;;21.40;1.00;;;;;;5084283;28;20261;-81
2022/07/27 11:54:24;;;;;;;2.13;1.10;;;21.40;99.90;;;;;;5092336;28;20243;-79
2022/07/27 11:56:54;;;;;;;1.70;0.73;;;21.70;1.00;;;;;;5088170;28;20212;-78
2022/07/27 11:59:24;;;;;;;2.50;0.73;;;22.00;99.90;;;;;;5072757;28;20527;-80
2022/07/27 12:01:52;;;;;;;1.70;0.65;;;22.20;99.90;;;;;;5073522;28;20255;-80
2022/07/27 12:04:25;;;;;;;1.63;0.93;;;22.20;99.90;;;;;;5073390;28;20779;-79
2022/07/27 12:06:59;;;;;;;3.03;0.80;;;22.20;99.90;;;;;;5072452;28;20205;-80
2022/07/27 12:09:27;;;;;;;2.58;0.80;;;22.10;99.90;;;;;;5075810;28;20381;-79
2022/07/27 12:11:57;;;;;;;3.17;0.90;;;22.10;99.90;;;;;;5083212;28;20192;-81
2022/07/27 12:14:34;;;;;;;4.10;0.82;;;22.00;99.90;;;;;;5086729;28;20776;-80
2022/07/27 12:17:12;;;;;;;1.13;0.70;;;22.00;99.90;;;;;;5071405;28;20207;-80
2022/07/27 12:19:39;;;;;;;2.15;0.90;;;21.70;99.90;;;;;;5085544;28;20228;-79
2022/07/27 12:22:06;;;;;;;2.22;0.60;;;21.60;99.90;;;;;;5093641;28;20196;-81
2022/07/27 12:24:35;;;;;;;3.33;1.02;;;21.50;99.90;;;;;;5093777;28;20196;-78
2022/07/27 12:27:04;;;;;;;3.30;1.10;;;21.50;99.90;;;;;;5080593;28;20515;-81
2022/07/27 12:29:32;;;;;;;3.80;0.82;;;21.30;99.90;;;;;;5088276;28;20201;-80
2022/07/27 12:32:03;;;;;;;2.05;0.93;;;21.20;99.90;;;;;;5088724;28;20589;-80
2022/07/27 12:34:35;;;;;;;1.75;0.90;;;21.10;99.90;;;;;;5072658;28;20213;-78
2022/07/27 12:37:10;;;;;;;4.05;0.98;;;21.00;99.90;;;;;;5073265;28;20616;-78
2022/07/27 12:39:37;;;;;;;2.58;0.90;;;21.00;99.90;;;;;;5073102;28;20213;-77
2022/07/27 12:42:05;;;;;;;1.15;0.77;;;21.00;99.90;;;;;;5073641;28;20193;-79
2022/07/27 12:44:35;;;;;;;3.72;1.02;;;21.00;1.00;;;;;;5072221;28;20196;-77
2022/07/27 12:49:59;;;;;;;3.33;0.85;;;21.00;99.90;;;;;;5072532;28;20243;-79
2022/07/27 12:52:27;;;;;;;2.63;0.80;;;20.90;99.90;;;;;;5072499;28;20200;-78
2022/07/27 12:54:53;;;;;;;3.40;1.00;;;20.90;1.00;;;;;;5075697;28;20231;-77
2022/07/27 12:57:20;;;;;;;1.70;0.82;;;20.80;1.00;;;;;;5093264;28;20291;-78
2022/07/27 12:59:48;;;;;;;1.83;0.85;;;20.70;1.00;;;;;;5088489;28;20201;-77
2022/07/27 13:02:15;;;;;;;1.23;0.70;;;20.70;1.00;;;;;;5073100;28;20193;-78
2022/07/27 13:04:42;;;;;;;1.35;0.73;;;20.70;1.00;;;;;;5072550;28;20202;-76